| weather.gov |
| Key West International Airport |
| metric |
| D a t e | Time (est) |
Wind (mph) | Vis. (mi.) | Weather | Sky Cond. | Temperature (ºF) | Relative Humidity | Wind Chill (°F) | Heat Index (°F) | Pressure | Precipitation (in.) | ||||||
|---|---|---|---|---|---|---|---|---|---|---|---|---|---|---|---|---|---|
| Air | Dwpt | 6 hour | altimeter (in) | sea level (mb) | 1 hr | 3 hr | 6 hr | ||||||||||
| Max. | Min. | ||||||||||||||||
| 08 | 22:53 | NE 6 | 10.00 | A Few Clouds | FEW039 | 73 | 68 | 84% | NA | NA | 30.12 | 1020.6 | |||||
| 08 | 21:53 | NE 7 | 10.00 | Fair | CLR | 73 | 68 | 84% | NA | NA | 30.13 | 1020.7 | |||||
| 08 | 20:53 | NE 6 | 10.00 | Fair | CLR | 73 | 68 | 84% | NA | NA | 30.11 | 1020.3 | |||||
| 08 | 19:53 | NE 7 | 10.00 | Mostly Cloudy | SCT039 BKN049 | 73 | 68 | 84% | NA | NA | 30.11 | 1020.1 | |||||
| 08 | 18:53 | NE 8 | 10.00 | Fair | CLR | 73 | 68 | 80 | 73 | 84% | NA | NA | 30.09 | 1019.6 | |||
| 08 | 17:53 | NE 9 | 10.00 | Fair | CLR | 74 | 67 | 79% | NA | NA | 30.08 | 1019.1 | |||||
| 08 | 16:53 | NE 7 | 10.00 | A Few Clouds | FEW035 | 77 | 67 | 71% | NA | 79 | 30.07 | 1018.9 | |||||
| 08 | 15:53 | E 8 | 10.00 | Fair | CLR | 78 | 67 | 69% | NA | 80 | 30.07 | 1018.7 | |||||
| 08 | 14:53 | E 10 | 10.00 | Mostly Cloudy | SCT038 SCT047 BKN060 | 78 | 67 | 69% | NA | 80 | 30.07 | 1018.8 | |||||
| 08 | 13:53 | E 13 | 10.00 | Mostly Cloudy | BKN060 | 79 | 66 | 65% | NA | 81 | 30.07 | 1018.8 | |||||
| 08 | 12:53 | E 13 G 22 | 10.00 | Mostly Cloudy | BKN060 | 80 | 67 | 80 | 75 | 64% | NA | 82 | 30.09 | 1019.5 | |||
| 08 | 11:53 | E 9 | 10.00 | Overcast | OVC060 | 78 | 66 | 67% | NA | 80 | 30.11 | 1020.3 | |||||
| 08 | 10:53 | E 12 | 10.00 | Fair | CLR | 78 | 64 | 62% | NA | 80 | 30.13 | 1020.8 | |||||
| 08 | 09:53 | SE 12 | 10.00 | A Few Clouds | FEW040 | 77 | 64 | 64% | NA | 79 | 30.13 | 1020.8 | |||||
| 08 | 08:53 | E 12 | 10.00 | Fair | CLR | 76 | 64 | 67% | NA | 78 | 30.12 | 1020.5 | |||||
| 08 | 07:53 | SE 15 | 10.00 | Mostly Cloudy | FEW042 BKN055 | 76 | 63 | 64% | NA | 78 | 30.10 | 1019.9 | |||||
| 08 | 06:53 | E 16 | 10.00 | Overcast | FEW048 OVC060 | 75 | 63 | 76 | 69 | 66% | NA | NA | 30.10 | 1019.7 | |||
| 08 | 05:53 | E 8 | 10.00 | Overcast | BKN043 OVC050 | 74 | 64 | 71% | NA | NA | 30.09 | 1019.4 | |||||
| 08 | 04:53 | Vrbl 3 | 10.00 | A Few Clouds | FEW060 | 70 | 63 | 79% | NA | NA | 30.08 | 1019.1 | |||||
| 08 | 03:53 | NE 7 | 10.00 | Overcast | SCT047 OVC055 | 71 | 64 | 79% | NA | NA | 30.08 | 1019.0 | |||||
| 08 | 02:53 | NE 8 | 10.00 | Overcast | FEW040 OVC050 | 70 | 63 | 79% | NA | NA | 30.08 | 1019.2 | |||||
| 08 | 01:53 | NE 8 | 10.00 | Fair | CLR | 69 | 62 | 78% | NA | NA | 30.09 | 1019.5 | |||||
| 08 | 00:53 | NE 8 | 10.00 | Mostly Cloudy | BKN050 | 70 | 61 | 71 | 70 | 73% | NA | NA | 30.10 | 1020.0 | |||
| 07 | 23:53 | NE 10 | 10.00 | Overcast | OVC045 | 70 | 61 | 73% | NA | NA | 30.12 | 1020.6 | |||||
| 07 | 22:53 | NE 8 | 10.00 | Fair | CLR | 70 | 60 | 71% | NA | NA | 30.13 | 1020.8 | |||||
| 07 | 21:53 | NE 9 | 10.00 | Fair | CLR | 70 | 61 | 73% | NA | NA | 30.15 | 1021.6 | |||||
| 07 | 20:53 | NE 10 G 20 | 10.00 | Fair | CLR | 71 | 60 | 68% | NA | NA | 30.14 | 1021.3 | |||||
| 07 | 19:53 | NE 9 G 17 | 10.00 | Fair | CLR | 71 | 60 | 68% | NA | NA | 30.13 | 1020.8 | |||||
| 07 | 18:53 | NE 9 G 18 | 10.00 | Fair | CLR | 71 | 60 | 74 | 70 | 68% | NA | NA | 30.11 | 1020.2 | |||
| 07 | 17:53 | NE 13 G 20 | 10.00 | Fair | CLR | 71 | 60 | 68% | NA | NA | 30.11 | 1020.0 | |||||
| 07 | 16:53 | NE 10 G 20 | 10.00 | Fair | CLR | 71 | 59 | 66% | NA | NA | 30.10 | 1019.9 | |||||
| 07 | 15:53 | NE 12 G 23 | 10.00 | Fair | CLR | 72 | 59 | 64% | NA | NA | 30.11 | 1020.1 | |||||
| 07 | 14:53 | NE 12 G 24 | 10.00 | A Few Clouds | FEW048 | 73 | 59 | 62% | NA | NA | 30.10 | 1019.8 | |||||
| 07 | 13:53 | NE 15 G 22 | 10.00 | A Few Clouds | FEW047 | 74 | 61 | 64% | NA | NA | 30.11 | 1020.1 | |||||
| 07 | 12:53 | NE 12 | 10.00 | Fair | CLR | 74 | 61 | 74 | 65 | 64% | NA | NA | 30.12 | 1020.6 | |||
| 07 | 11:53 | NE 12 G 20 | 10.00 | Fair | CLR | 73 | 60 | 64% | NA | NA | 30.16 | 1021.8 | |||||
| 07 | 10:53 | NE 14 G 21 | 10.00 | Fair | CLR | 70 | 60 | 71% | NA | NA | 30.18 | 1022.5 | |||||
| 07 | 09:53 | NE 16 G 22 | 10.00 | Fair | CLR | 69 | 59 | 70% | NA | NA | 30.18 | 1022.7 | |||||
| 07 | 08:53 | NE 13 G 22 | 10.00 | Fair | CLR | 68 | 59 | 73% | NA | NA | 30.17 | 1022.3 | |||||
| 07 | 07:53 | NE 13 G 22 | 10.00 | Fair | CLR | 66 | 57 | 73% | NA | NA | 30.16 | 1022.0 | |||||
| 07 | 06:53 | NE 12 | 10.00 | Fair | CLR | 65 | 57 | 66 | 64 | 76% | NA | NA | 30.15 | 1021.7 | |||
| 07 | 05:53 | NE 10 | 10.00 | Fair | CLR | 65 | 55 | 70% | NA | NA | 30.14 | 1021.2 | |||||
| 07 | 04:53 | NE 6 G 18 | 10.00 | Fair | CLR | 65 | 52 | 63% | NA | NA | 30.13 | 1020.9 | |||||
| 07 | 03:53 | NE 9 | 10.00 | Fair | CLR | 65 | 52 | 63% | NA | NA | 30.13 | 1020.9 | |||||
| 07 | 02:53 | NE 6 | 10.00 | Fair | CLR | 65 | 48 | 54% | NA | NA | 30.15 | 1021.4 | |||||
| 07 | 01:53 | NE 7 | 10.00 | Fair | CLR | 64 | 46 | 52% | NA | NA | 30.15 | 1021.4 | |||||
| 07 | 00:53 | NE 8 G 20 | 10.00 | Fair | CLR | 66 | 45 | 69 | 66 | 47% | NA | NA | 30.14 | 1021.3 | |||
| 06 | 23:53 | NE 9 | 10.00 | Fair | CLR | 67 | 49 | 53% | NA | NA | 30.15 | 1021.5 | |||||
| 06 | 22:53 | N 13 G 18 | 10.00 | Fair | CLR | 67 | 53 | 61% | NA | NA | 30.15 | 1021.6 | |||||
| 06 | 21:53 | N 10 | 10.00 | Fair | CLR | 67 | 53 | 61% | NA | NA | 30.16 | 1021.7 | |||||
| 06 | 20:53 | N 16 G 22 | 10.00 | Fair | CLR | 67 | 54 | 63% | NA | NA | 30.15 | 1021.5 | |||||
| 06 | 19:53 | N 14 G 25 | 10.00 | Fair | CLR | 68 | 53 | 59% | NA | NA | 30.13 | 1020.8 | |||||
| 06 | 18:53 | N 15 G 24 | 10.00 | Fair | CLR | 69 | 52 | 71 | 68 | 55% | NA | NA | 30.11 | 1020.3 | |||
| 06 | 17:53 | N 13 G 22 | 10.00 | Fair | CLR | 69 | 53 | 57% | NA | NA | 30.11 | 1020.1 | |||||
| 06 | 16:53 | N 14 G 23 | 10.00 | Fair | CLR | 69 | 57 | 66% | NA | NA | 30.10 | 1019.8 | |||||
| 06 | 15:53 | N 14 G 24 | 10.00 | Fair | CLR | 70 | 55 | 59% | NA | NA | 30.09 | 1019.6 | |||||
| 06 | 14:53 | N 15 G 23 | 10.00 | Fair | CLR | 71 | 54 | 55% | NA | NA | 30.09 | 1019.4 | |||||
| 06 | 13:53 | N 10 G 22 | 10.00 | Fair | CLR | 70 | 55 | 59% | NA | NA | 30.09 | 1019.5 | |||||
| 06 | 12:53 | N 13 G 29 | 10.00 | Fair | CLR | 71 | 53 | 75 | 70 | 53% | NA | NA | 30.11 | 1020.1 | |||
| 06 | 11:53 | N 17 G 24 | 10.00 | Fair | CLR | 74 | 54 | 50% | NA | NA | 30.13 | 1020.7 | |||||
| 06 | 10:53 | N 17 G 28 | 10.00 | Fair | CLR | 72 | 54 | 53% | NA | NA | 30.15 | 1021.4 | |||||
| 06 | 09:53 | N 13 G 24 | 10.00 | Fair | CLR | 72 | 60 | 66% | NA | NA | 30.15 | 1021.6 | |||||
| 06 | 08:53 | N 14 G 24 | 10.00 | Fair | CLR | 72 | 61 | 68% | NA | NA | 30.14 | 1021.2 | |||||
| 06 | 07:53 | N 15 G 25 | 10.00 | Fair | CLR | 71 | 61 | 71% | NA | NA | 30.12 | 1020.4 | |||||
| 06 | 06:53 | N 14 G 24 | 10.00 | A Few Clouds | FEW026 | 70 | 61 | 73 | 70 | 73% | NA | NA | 30.09 | 1019.6 | |||
| 06 | 05:53 | N 15 G 24 | 10.00 | Fair | CLR | 71 | 52 | 51% | NA | NA | 30.07 | 1018.9 | |||||
| 06 | 04:53 | N 13 G 23 | 10.00 | Fair | CLR | 71 | 53 | 53% | NA | NA | 30.06 | 1018.4 | |||||
| 06 | 03:53 | N 15 G 25 | 10.00 | Fair | CLR | 71 | 57 | 61% | NA | NA | 30.05 | 1018.2 | |||||
| 06 | 02:53 | N 17 G 25 | 10.00 | Fair | CLR | 71 | 63 | 76% | NA | NA | 30.05 | 1018.1 | |||||
| 06 | 01:53 | N 13 | 10.00 | Fair | CLR | 72 | 65 | 79% | NA | NA | 30.06 | 1018.4 | |||||
| 06 | 00:53 | N 10 | 10.00 | Fair | CLR | 73 | 63 | 75 | 73 | 71% | NA | NA | 30.06 | 1018.6 | |||
| 05 | 23:53 | N 10 G 20 | 10.00 | Fair | CLR | 74 | 65 | 74% | NA | NA | 30.08 | 1019.0 | |||||
| D a t e | Time (est) |
Wind (mph) | Vis. (mi.) | Weather | Sky Cond. | Air | Dwpt | Max. | Min. | Relative Humidity | Wind Chill (°F) | Heat Index (°F) | altimeter (in.) | sea level (mb) |
1 hr | 3 hr | 6 hr |
| 6 hour | |||||||||||||||||
| Temperature (ºF) | Pressure | Precipitation (in.) | |||||||||||||||
| National Weather Service Southern Region Headquarters Fort Worth, Texas Disclaimer |
Last Modified: Febuary, 7 2012 Privacy Policy |
|